This is the latest recevied weather packets stored in our database for station/object DO6MJ-1. If no packets are shown the sender has not sent any weather packets the latest 10 day(s).
| Time | Temp. | Humidity | Pressure | Rain* | Wind** | Luminosity | Snow |
|---|---|---|---|---|---|---|---|
| 1787453008 | 11.67° C | 88% | 1012.8 hPa | 0 mm | - | - | - |
| 1787451808 | 11.67° C | 89% | 1012.8 hPa | 0 mm | - | - | - |
| 1787450608 | 11.67° C | 89% | 1012.8 hPa | 0 mm | - | - | - |
| 1787449408 | 11.67° C | 88% | 1012.7 hPa | 0 mm | - | - | - |
| 1787448207 | 11.67° C | 87% | 1012.7 hPa | 0 mm | - | - | - |
| 1787447007 | 11.67° C | 87% | 1012.5 hPa | 0 mm | - | - | - |
| 1787445807 | 11.67° C | 87% | 1012.4 hPa | 0 mm | - | - | - |
| 1787444606 | 11.67° C | 86% | 1012.5 hPa | 0 mm | - | - | - |
| 1787443406 | 11.67° C | 85% | 1012.5 hPa | 0 mm | - | - | - |
| 1787442206 | 11.67° C | 84% | 1012.6 hPa | 0 mm | - | - | - |
| 1787441006 | 11.67° C | 83% | 1012.6 hPa | 0 mm | - | - | - |
| 1787439805 | 12.22° C | 82% | 1012.5 hPa | 0 mm | - | - | - |
| 1787438605 | 12.22° C | 81% | 1012.5 hPa | 0 mm | - | - | - |
| 1787437405 | 12.78° C | 81% | 1012.3 hPa | 0 mm | - | - | - |
| 1787436204 | 12.78° C | 80% | 1012.3 hPa | 0 mm | - | - | - |
| 1787435004 | 12.78° C | 80% | 1012.2 hPa | 0 mm | - | - | - |
| 1787433804 | 13.33° C | 79% | 1012.2 hPa | 0 mm | - | - | - |
| 1787432604 | 13.33° C | 78% | 1012.2 hPa | 0 mm | - | - | - |
| 1787431403 | 13.89° C | 76% | 1012 hPa | 0 mm | - | - | - |
| 1787430203 | 14.44° C | 75% | 1012.1 hPa | 0 mm | - | - | - |
| 1787429003 | 15° C | 74% | 1012 hPa | 0 mm | - | - | - |
| 1787427802 | 15° C | 73% | 1011.8 hPa | 0 mm | - | - | - |
| 1787426602 | 15.56° C | 72% | 1011.7 hPa | 0 mm | - | - | - |
| 1787425402 | 15.56° C | 70% | 1011.5 hPa | 0 mm | - | - | - |
| 1787424202 | 16.67° C | 68% | 1011 hPa | 0 mm | - | - | - |
* Rain latest hour (hover to see other rain measurements)
** Current wind speed in m/s (hover to see current wind gust speed)